Time;durP1;ratioP1;P1;durP2;ratioP2;P2;SDS_P1;SDS_P2;PMS_P1;PMS_P2;Temp;Humidity;BMP_temperature;BMP_pressure;BME280_temperature;BME280_humidity;BME280_pressure;Samples;Min_cycle;Max_cycle;Signal;HPM_P1;HPM_P2
2023/04/15 00:01:32;;;;;;;0.20;0.20;;;;;;;6.35;90.88;96430.31;5008172;28;20068;-72
2023/04/15 00:04:00;;;;;;;0.10;0.10;;;;;;;6.37;90.47;96428.28;5006599;28;20106;-72
2023/04/15 00:06:28;;;;;;;0.13;0.13;;;;;;;6.36;90.29;96418.69;5006608;28;20089;-71
2023/04/15 00:08:56;;;;;;;0.22;0.22;;;;;;;6.31;90.32;96419.31;5012160;28;20049;-71
2023/04/15 00:11:24;;;;;;;0.22;0.22;;;;;;;6.30;90.63;96419.50;5009491;28;20042;-72
2023/04/15 00:13:53;;;;;;;0.32;0.32;;;;;;;6.23;91.42;96414.97;5011990;28;20100;-72
2023/04/15 00:16:20;;;;;;;0.20;0.20;;;;;;;6.21;91.37;96422.31;5009733;28;20050;-71
2023/04/15 00:18:48;;;;;;;0.10;0.10;;;;;;;6.23;90.95;96414.97;5018096;28;20072;-72
2023/04/15 00:21:16;;;;;;;0.45;0.45;;;;;;;6.28;91.21;96413.56;5015850;28;20046;-72
2023/04/15 00:23:44;;;;;;;0.35;0.35;;;;;;;6.30;91.37;96411.53;5011431;28;20053;-72
2023/04/15 00:26:12;;;;;;;0.32;0.32;;;;;;;6.31;91.23;96405.25;5015437;28;20042;-71
2023/04/15 00:28:42;;;;;;;0.10;0.10;;;;;;;6.30;90.87;96406.25;5010876;28;20033;-70
2023/04/15 00:31:09;;;;;;;0.32;0.32;;;;;;;6.26;91.26;96403.16;5012573;28;20096;-71
2023/04/15 00:33:37;;;;;;;0.20;0.20;;;;;;;6.28;91.23;96400.31;5007045;28;20042;-72
2023/04/15 00:36:07;;;;;;;0.20;0.20;;;;;;;6.16;91.87;96394.75;5012500;28;20065;-73
2023/04/15 00:38:34;;;;;;;0.17;0.17;;;;;;;6.25;91.31;96399.69;5008523;28;20085;-71
2023/04/15 00:41:03;;;;;;;0.20;0.20;;;;;;;6.25;91.25;96397.06;5013021;28;20509;-71
2023/04/15 00:43:30;;;;;;;0.30;0.30;;;;;;;6.19;91.48;96391.72;5008199;28;20046;-72
2023/04/15 00:46:01;;;;;;;0.20;0.20;;;;;;;6.25;91.48;96391.75;5011608;28;20076;-71
2023/04/15 00:48:29;;;;;;;0.20;0.20;;;;;;;6.29;91.28;96392.19;5004139;28;20124;-72
2023/04/15 00:50:57;;;;;;;0.13;0.13;;;;;;;6.33;91.33;96387.31;5009798;28;20049;-71
2023/04/15 00:53:24;;;;;;;0.22;0.22;;;;;;;6.35;91.43;96386.06;5007471;28;20057;-71
2023/04/15 00:55:52;;;;;;;0.20;0.20;;;;;;;6.41;90.77;96384.50;5008169;28;20564;-71
2023/04/15 00:58:20;;;;;;;0.20;0.20;;;;;;;6.39;90.31;96383.88;5006488;28;20046;-72
2023/04/15 01:00:48;;;;;;;0.20;0.20;;;;;;;6.38;90.52;96382.22;5023621;28;20116;-72
2023/04/15 01:03:17;;;;;;;0.15;0.15;;;;;;;6.30;90.69;96374.47;5007766;28;20110;-71
2023/04/15 01:05:45;;;;;;;0.20;0.20;;;;;;;6.25;91.21;96382.97;5006278;28;20062;-72
2023/04/15 01:08:13;;;;;;;0.50;0.50;;;;;;;6.24;91.11;96387.47;5008960;28;20116;-71
2023/04/15 01:10:41;;;;;;;0.32;0.32;;;;;;;6.28;91.12;96379.94;5005782;28;20050;-72
2023/04/15 01:13:09;;;;;;;0.50;0.50;;;;;;;6.30;90.90;96380.56;5005778;28;20038;-72
2023/04/15 01:15:37;;;;;;;0.20;0.20;;;;;;;6.18;91.70;96379.50;5008672;28;20103;-72
2023/04/15 01:18:04;;;;;;;0.20;0.20;;;;;;;6.17;91.87;96375.22;5010406;28;20048;-71
2023/04/15 01:20:34;;;;;;;0.20;0.20;;;;;;;6.12;92.08;96373.16;5006561;28;20042;-71
2023/04/15 01:23:02;;;;;;;0.20;0.20;;;;;;;6.13;92.19;96366.84;5010362;28;20054;-71
2023/04/15 01:25:33;;;;;;;0.13;0.13;;;;;;;6.15;92.45;96367.47;5008396;28;20042;-71
2023/04/15 01:28:02;;;;;;;0.35;0.35;;;;;;;6.17;92.29;96367.25;5008417;28;20494;-71
2023/04/15 01:30:33;;;;;;;0.30;0.30;;;;;;;6.17;92.27;96367.25;5009511;28;20046;-71
2023/04/15 01:33:01;;;;;;;0.32;0.32;;;;;;;6.17;92.57;96370.72;5009739;28;20729;-71
2023/04/15 01:35:29;;;;;;;0.13;0.13;;;;;;;6.20;92.57;96373.00;5004589;28;20045;-70
2023/04/15 01:38:00;;;;;;;0.10;0.10;;;;;;;6.19;92.40;96374.00;5010006;28;20052;-70
2023/04/15 01:40:28;;;;;;;0.10;0.10;;;;;;;6.11;92.54;96368.06;5003729;28;20042;-70
2023/04/15 01:43:00;;;;;;;0.30;0.30;;;;;;;6.13;92.88;96355.41;5008932;28;20054;-71
2023/04/15 01:45:27;;;;;;;0.20;0.20;;;;;;;6.25;92.29;96364.44;5016779;28;20054;-70
2023/04/15 01:47:55;;;;;;;0.20;0.20;;;;;;;6.25;92.21;96359.97;5009846;28;20050;-70
2023/04/15 01:50:22;;;;;;;0.20;0.20;;;;;;;6.28;92.24;96361.41;5009412;28;20041;-71
2023/04/15 01:52:50;;;;;;;0.20;0.20;;;;;;;6.28;92.17;96363.22;5010196;28;20563;-70
2023/04/15 01:55:18;;;;;;;0.20;0.20;;;;;;;6.26;92.09;96356.28;5008034;28;20064;-70
2023/04/15 01:57:46;;;;;;;0.28;0.28;;;;;;;6.24;91.88;96358.31;5013993;28;20049;-70
2023/04/15 02:00:16;;;;;;;0.20;0.20;;;;;;;6.26;91.81;96353.66;5011603;28;20049;-70
2023/04/15 02:02:43;;;;;;;0.32;0.32;;;;;;;6.22;91.66;96356.91;5014910;28;20473;-70
2023/04/15 02:05:11;;;;;;;0.25;0.25;;;;;;;6.22;91.95;96348.97;5013861;28;20493;-70
2023/04/15 02:07:39;;;;;;;0.35;0.35;;;;;;;6.27;91.86;96351.81;5012022;28;20096;-70
2023/04/15 02:10:08;;;;;;;0.20;0.20;;;;;;;6.30;91.65;96346.13;5014629;28;20038;-70
2023/04/15 02:12:35;;;;;;;0.82;0.82;;;;;;;6.20;91.96;96351.81;5029328;28;20501;-70
2023/04/15 02:15:04;;;;;;;0.30;0.30;;;;;;;6.24;90.71;96346.91;5012092;28;20056;-70
2023/04/15 02:17:36;;;;;;;0.20;0.20;;;;;;;6.23;91.32;96340.78;5013248;28;20038;-70
2023/04/15 02:20:04;;;;;;;0.32;0.32;;;;;;;6.20;91.69;96351.81;5013833;28;20501;-70
2023/04/15 02:22:32;;;;;;;0.45;0.45;;;;;;;6.19;91.48;96328.97;5012857;28;20440;-70
2023/04/15 02:24:59;;;;;;;0.13;0.13;;;;;;;6.19;90.80;96338.75;5012953;28;20521;-70
2023/04/15 02:27:27;;;;;;;0.20;0.20;;;;;;;6.18;91.00;96339.75;5012607;28;20501;-70
2023/04/15 02:29:55;;;;;;;0.20;0.20;;;;;;;6.13;91.23;96350.13;5011804;28;20050;-71
2023/04/15 02:32:23;;;;;;;0.45;0.45;;;;;;;6.08;91.04;96331.38;5009163;28;20670;-71
2023/04/15 02:34:52;;;;;;;0.25;0.25;;;;;;;6.10;91.33;96339.94;5012039;28;20564;-71
2023/04/15 02:37:19;;;;;;;0.22;0.22;;;;;;;6.11;91.17;96339.75;5013813;28;20037;-70
2023/04/15 02:39:47;;;;;;;0.15;0.15;;;;;;;6.13;91.06;96343.00;5011789;28;20061;-70
2023/04/15 02:42:15;;;;;;;0.32;0.32;;;;;;;6.07;91.07;96340.31;5008106;28;20137;-70
2023/04/15 02:44:43;;;;;;;0.60;0.60;;;;;;;6.04;91.48;96338.88;5024471;28;20050;-70
2023/04/15 02:47:10;;;;;;;0.38;0.28;;;;;;;5.99;91.41;96338.69;5012709;28;20046;-71
2023/04/15 02:49:39;;;;;;;0.10;0.10;;;;;;;6.05;91.31;96339.69;5008775;28;20053;-70
2023/04/15 02:52:08;;;;;;;0.28;0.28;;;;;;;6.01;91.02;96338.47;5013553;28;20077;-70
2023/04/15 02:54:36;;;;;;;0.25;0.25;;;;;;;5.89;91.62;96335.56;5010431;28;20038;-70
2023/04/15 02:57:05;;;;;;;0.15;0.15;;;;;;;5.97;91.05;96335.41;5012058;28;20052;-70
2023/04/15 02:59:33;;;;;;;0.30;0.30;;;;;;;5.90;91.36;96334.56;5008610;28;20050;-70
2023/04/15 03:02:00;;;;;;;0.20;0.20;;;;;;;5.97;91.27;96334.59;5011960;28;20053;-70
2023/04/15 03:04:29;;;;;;;0.25;0.25;;;;;;;5.86;91.77;96327.97;5008187;28;20042;-70
2023/04/15 03:06:57;;;;;;;0.20;0.20;;;;;;;5.82;91.84;96327.53;5009243;28;20042;-71
2023/04/15 03:09:32;;;;;;;0.32;0.32;;;;;;;5.90;91.54;96329.25;5012839;28;20042;-71
2023/04/15 03:12:03;;;;;;;0.20;0.20;;;;;;;5.96;91.62;96333.75;5012353;28;20084;-70
2023/04/15 03:14:31;;;;;;;0.22;0.22;;;;;;;5.93;91.66;96326.19;5011533;28;20034;-71
2023/04/15 03:16:59;;;;;;;0.20;0.20;;;;;;;5.99;91.73;96321.97;5010823;28;20046;-71
2023/04/15 03:19:26;;;;;;;0.30;0.30;;;;;;;5.95;91.50;96324.19;5011826;28;20057;-71
2023/04/15 03:21:54;;;;;;;0.10;0.10;;;;;;;5.97;91.52;96316.03;5007904;28;20082;-70
2023/04/15 03:24:21;;;;;;;0.20;0.20;;;;;;;5.99;91.54;96319.31;5012832;28;20037;-71
2023/04/15 03:26:50;;;;;;;0.40;0.40;;;;;;;6.00;91.55;96319.13;5006445;28;20058;-71
2023/04/15 03:29:18;;;;;;;0.10;0.10;;;;;;;6.01;91.62;96315.47;5009572;28;20030;-71
2023/04/15 03:31:46;;;;;;;0.32;0.32;;;;;;;6.06;91.52;96309.56;5011345;28;20046;-71
2023/04/15 03:34:13;;;;;;;0.20;0.20;;;;;;;6.04;91.44;96309.75;5009628;28;20044;-71
2023/04/15 03:36:41;;;;;;;0.20;0.20;;;;;;;6.02;91.51;96316.28;5007728;28;20521;-71
2023/04/15 03:39:08;;;;;;;0.20;0.20;;;;;;;6.05;91.51;96306.09;5006087;28;20054;-71
2023/04/15 03:41:36;;;;;;;0.20;0.20;;;;;;;6.07;91.33;96300.59;5006260;28;20073;-70
2023/04/15 03:44:05;;;;;;;0.10;0.10;;;;;;;6.07;91.17;96304.06;5007913;28;20053;-69
2023/04/15 03:46:32;;;;;;;0.45;0.45;;;;;;;6.07;91.19;96301.41;5006306;28;20046;-69
2023/04/15 03:49:00;;;;;;;0.20;0.20;;;;;;;6.10;91.21;96305.50;5006494;28;20129;-69
2023/04/15 03:51:28;;;;;;;0.30;0.30;;;;;;;6.14;90.55;96298.78;5000863;28;20046;-70
2023/04/15 03:53:55;;;;;;;0.50;0.50;;;;;;;6.15;91.13;96290.63;5006973;28;20050;-70
2023/04/15 03:56:23;;;;;;;0.17;0.17;;;;;;;6.07;91.05;96288.19;5010311;28;20451;-70
2023/04/15 03:58:50;;;;;;;0.10;0.10;;;;;;;6.01;91.12;96298.75;5007162;28;20054;-70
2023/04/15 04:01:20;;;;;;;0.32;0.32;;;;;;;6.05;91.25;96290.19;5005591;28;20080;-70
2023/04/15 04:03:47;;;;;;;0.10;0.10;;;;;;;6.09;91.08;96272.09;5006480;28;20077;-70
2023/04/15 04:06:15;;;;;;;0.20;0.20;;;;;;;6.01;91.25;96274.94;5005335;28;20049;-71
2023/04/15 04:08:43;;;;;;;0.22;0.22;;;;;;;5.98;91.13;96277.97;5010955;28;20069;-70
2023/04/15 04:11:11;;;;;;;0.13;0.13;;;;;;;5.98;91.17;96267.38;5012503;28;20100;-70
2023/04/15 04:13:39;;;;;;;0.32;0.32;;;;;;;5.94;91.56;96277.53;5008953;28;20030;-71
2023/04/15 04:16:07;;;;;;;0.20;0.20;;;;;;;6.03;91.32;96281.63;5011058;28;20053;-71
2023/04/15 04:18:36;;;;;;;0.20;0.20;;;;;;;6.07;91.19;96285.53;5007578;28;20046;-71
2023/04/15 04:21:03;;;;;;;0.20;0.20;;;;;;;6.00;90.74;96289.19;5009548;28;20084;-70
2023/04/15 04:23:31;;;;;;;0.20;0.20;;;;;;;6.04;91.14;96285.91;5007319;28;20038;-70
2023/04/15 04:25:58;;;;;;;0.28;0.28;;;;;;;6.11;91.31;96292.06;5011088;28;20050;-71
2023/04/15 04:28:26;;;;;;;0.77;0.77;;;;;;;6.11;91.17;96302.66;5005401;28;20042;-70
2023/04/15 04:30:53;;;;;;;0.30;0.30;;;;;;;6.13;90.95;96299.78;5006010;28;20069;-70
2023/04/15 04:33:21;;;;;;;0.20;0.20;;;;;;;6.02;91.38;96303.03;5007434;28;20050;-72
2023/04/15 04:35:50;;;;;;;0.35;0.35;;;;;;;6.08;91.56;96295.09;5003543;28;20108;-70
2023/04/15 04:38:17;;;;;;;0.40;0.40;;;;;;;6.09;91.95;96296.75;5007279;28;20046;-71
2023/04/15 04:40:45;;;;;;;0.30;0.30;;;;;;;6.06;91.69;96302.44;5008951;28;20049;-70
2023/04/15 04:43:13;;;;;;;0.10;0.10;;;;;;;6.07;91.61;96293.47;5007995;28;20041;-71
2023/04/15 04:45:41;;;;;;;0.13;0.13;;;;;;;6.09;91.71;96287.97;5007971;28;20050;-70
2023/04/15 04:48:09;;;;;;;0.20;0.20;;;;;;;6.12;91.63;96284.94;5007625;28;20052;-71
2023/04/15 04:50:37;;;;;;;0.40;0.40;;;;;;;6.17;91.82;96291.25;5007960;28;20041;-71
2023/04/15 04:53:05;;;;;;;0.20;0.20;;;;;;;6.16;91.65;96297.56;5008858;28;20521;-70
2023/04/15 04:55:35;;;;;;;0.20;0.20;;;;;;;6.22;91.30;96306.56;5005464;28;20042;-71
2023/04/15 04:58:03;;;;;;;0.20;0.20;;;;;;;6.09;91.68;96296.75;5008440;28;20045;-70
2023/04/15 05:00:30;;;;;;;0.17;0.17;;;;;;;6.07;92.17;96298.78;5007108;28;20049;-70
2023/04/15 05:02:58;;;;;;;0.28;0.28;;;;;;;6.11;92.27;96297.38;5011649;28;20460;-70
2023/04/15 05:05:26;;;;;;;0.20;0.20;;;;;;;6.12;92.34;96299.00;5005191;28;20061;-70
2023/04/15 05:07:53;;;;;;;0.22;0.22;;;;;;;6.14;92.29;96312.03;5008537;28;20513;-70
2023/04/15 05:10:22;;;;;;;0.20;0.20;;;;;;;6.17;92.31;96301.88;5011287;28;20046;-70
2023/04/15 05:12:50;;;;;;;0.22;0.22;;;;;;;6.16;92.36;96302.06;5010883;28;20049;-70
2023/04/15 05:15:18;;;;;;;0.10;0.10;;;;;;;6.15;92.67;96306.53;5007361;28;20034;-71
2023/04/15 05:17:45;;;;;;;0.20;0.20;;;;;;;6.17;92.83;96306.34;5009688;28;20108;-71
2023/04/15 05:20:13;;;;;;;0.22;0.22;;;;;;;6.13;92.56;96313.03;5008088;28;20569;-71
2023/04/15 05:22:41;;;;;;;0.10;0.10;;;;;;;6.13;92.51;96326.28;5009972;28;20057;-70
2023/04/15 05:25:09;;;;;;;0.17;0.17;;;;;;;6.21;92.68;96319.00;5001658;28;20073;-70
2023/04/15 05:27:38;;;;;;;0.20;0.20;;;;;;;6.27;92.38;96314.72;5010047;28;20045;-70
2023/04/15 05:30:06;;;;;;;0.30;0.30;;;;;;;6.24;91.93;96318.59;5006253;28;20100;-70
2023/04/15 05:32:34;;;;;;;0.20;0.20;;;;;;;6.15;93.14;96319.78;5004072;28;20054;-71
2023/04/15 05:35:02;;;;;;;0.20;0.20;;;;;;;6.27;92.77;96320.03;5006792;28;20042;-70
2023/04/15 05:37:29;;;;;;;0.20;0.20;;;;;;;6.17;93.06;96315.09;5009992;28;20050;-70
2023/04/15 05:39:57;;;;;;;0.25;0.25;;;;;;;6.19;92.60;96323.69;5007750;28;20057;-70
2023/04/15 05:42:24;;;;;;;0.15;0.15;;;;;;;6.16;93.16;96329.38;5006274;28;20374;-70
2023/04/15 05:44:53;;;;;;;0.20;0.20;;;;;;;6.18;92.66;96318.56;5007126;28;20080;-70
2023/04/15 05:47:21;;;;;;;0.20;0.20;;;;;;;6.19;93.00;96323.69;5003852;28;20053;-71
2023/04/15 05:49:48;;;;;;;0.32;0.32;;;;;;;6.28;92.55;96321.66;5004974;28;20052;-70
2023/04/15 05:52:16;;;;;;;0.32;0.32;;;;;;;6.27;92.28;96325.31;5004054;28;20053;-71
2023/04/15 05:54:43;;;;;;;0.20;0.20;;;;;;;6.29;92.26;96323.28;5007274;28;20050;-71
2023/04/15 05:57:11;;;;;;;0.40;0.40;;;;;;;6.32;92.17;96324.75;5008983;28;20100;-71
2023/04/15 05:59:40;;;;;;;0.13;0.13;;;;;;;6.35;92.42;96332.28;5008699;28;20104;-71
2023/04/15 06:02:10;;;;;;;0.32;0.32;;;;;;;6.36;92.41;96321.47;5003142;28;20038;-70
2023/04/15 06:04:38;;;;;;;0.28;0.28;;;;;;;6.22;92.14;96320.63;5006279;28;20493;-70
2023/04/15 06:07:05;;;;;;;0.35;0.35;;;;;;;6.26;92.14;96329.81;5002453;28;20133;-70
2023/04/15 06:09:33;;;;;;;0.20;0.20;;;;;;;6.27;92.66;96322.66;5008004;28;20375;-70
2023/04/15 06:12:01;;;;;;;0.20;0.20;;;;;;;6.32;92.64;96325.56;5008135;28;20050;-70
2023/04/15 06:14:29;;;;;;;0.32;0.32;;;;;;;6.31;92.92;96329.22;5002371;28;20116;-70
2023/04/15 06:16:56;;;;;;;0.43;0.43;;;;;;;6.18;93.02;96331.81;5007587;28;20455;-70
2023/04/15 06:19:25;;;;;;;0.30;0.30;;;;;;;6.18;93.11;96330.00;5008019;28;20512;-71
2023/04/15 06:21:53;;;;;;;0.20;0.20;;;;;;;6.21;93.21;96328.78;5006673;28;20034;-70
2023/04/15 06:24:20;;;;;;;0.20;0.20;;;;;;;6.25;93.13;96328.16;5008205;28;20034;-70
2023/04/15 06:26:48;;;;;;;0.20;0.20;;;;;;;6.26;93.08;96324.50;5007105;28;20477;-70
2023/04/15 06:29:16;;;;;;;0.32;0.32;;;;;;;6.10;92.94;96330.16;5006406;28;20080;-70
2023/04/15 06:31:43;;;;;;;0.20;0.20;;;;;;;6.18;92.90;96334.47;5002545;28;20046;-70
2023/04/15 06:34:11;;;;;;;0.28;0.28;;;;;;;6.24;93.19;96338.97;5006104;28;20129;-70
2023/04/15 06:36:40;;;;;;;0.22;0.22;;;;;;;6.20;93.24;96333.25;5009721;28;20102;-70
2023/04/15 06:39:07;;;;;;;0.20;0.20;;;;;;;6.25;93.08;96345.91;5009181;28;20092;-70
2023/04/15 06:41:35;;;;;;;0.17;0.17;;;;;;;6.28;92.97;96342.84;5005071;28;20042;-70
2023/04/15 06:44:03;;;;;;;0.32;0.32;;;;;;;6.30;92.58;96338.19;5008608;28;21494;-70
2023/04/15 06:46:30;;;;;;;0.10;0.10;;;;;;;6.35;92.44;96337.56;5005860;28;20053;-70
2023/04/15 06:48:58;;;;;;;0.20;0.20;;;;;;;6.35;92.51;96333.09;5007472;28;20100;-70
2023/04/15 06:51:25;;;;;;;0.32;0.32;;;;;;;6.36;92.71;96337.38;5005483;28;20045;-70
2023/04/15 06:53:54;;;;;;;0.10;0.10;;;;;;;6.35;92.54;96338.38;5021938;28;20050;-71
2023/04/15 06:56:22;;;;;;;0.43;0.43;;;;;;;6.37;92.68;96343.50;5011336;28;20073;-70
2023/04/15 06:58:50;;;;;;;0.15;0.15;;;;;;;6.04;93.55;96346.00;5011366;28;20501;-71
2023/04/15 07:01:17;;;;;;;0.10;0.10;;;;;;;6.16;93.22;96347.09;5006613;28;20099;-70
2023/04/15 07:03:45;;;;;;;0.32;0.32;;;;;;;6.19;92.90;96344.88;5008937;28;20135;-70
2023/04/15 07:06:13;;;;;;;0.13;0.13;;;;;;;6.27;92.66;96359.75;5009185;28;20099;-70
2023/04/15 07:08:41;;;;;;;0.32;0.32;;;;;;;6.29;92.77;96356.91;5012692;28;20042;-70
2023/04/15 07:11:10;;;;;;;0.20;0.20;;;;;;;6.26;92.99;96361.59;5013397;28;20038;-70
2023/04/15 07:13:38;;;;;;;0.22;0.22;;;;;;;6.36;92.81;96363.06;5012130;28;20046;-70
2023/04/15 07:16:05;;;;;;;0.40;0.40;;;;;;;6.39;92.54;96358.19;5012173;28;20034;-70
2023/04/15 07:18:33;;;;;;;0.10;0.10;;;;;;;6.23;92.58;96359.34;5009216;28;20050;-71
2023/04/15 07:21:01;;;;;;;0.20;0.20;;;;;;;6.23;93.13;96358.50;5011129;28;20103;-71
2023/04/15 07:23:29;;;;;;;0.10;0.10;;;;;;;6.25;93.04;96365.25;5009834;28;20045;-71
2023/04/15 07:25:56;;;;;;;0.20;0.20;;;;;;;6.35;92.48;96366.72;5009836;28;20045;-71
2023/04/15 07:28:25;;;;;;;0.20;0.20;;;;;;;6.35;92.19;96366.72;5008685;28;20053;-71
2023/04/15 07:30:53;;;;;;;0.20;0.20;;;;;;;6.39;92.24;96360.84;5008659;28;20050;-72
2023/04/15 07:33:20;;;;;;;0.15;0.15;;;;;;;6.39;92.15;96371.44;5011051;28;20113;-71
2023/04/15 07:35:48;;;;;;;0.30;0.30;;;;;;;6.38;92.01;96367.16;5008272;28;20461;-71
2023/04/15 07:38:16;;;;;;;0.10;0.10;;;;;;;6.40;91.88;96367.78;5008352;28;20049;-71
2023/04/15 07:40:44;;;;;;;0.20;0.20;;;;;;;6.27;92.58;96373.00;5004794;28;20105;-71
2023/04/15 07:43:12;;;;;;;0.20;0.20;;;;;;;6.29;93.16;96371.00;5009425;28;20045;-70
2023/04/15 07:45:41;;;;;;;0.45;0.45;;;;;;;6.40;92.85;96372.25;5002357;28;20065;-70
2023/04/15 07:48:08;;;;;;;1.48;0.20;;;;;;;6.44;92.53;96379.59;5007543;28;20100;-70
2023/04/15 07:50:36;;;;;;;0.22;0.22;;;;;;;6.39;92.75;96376.72;5002249;28;20034;-71
2023/04/15 07:53:04;;;;;;;0.20;0.20;;;;;;;6.42;92.49;96371.03;5009594;28;20049;-70
2023/04/15 07:55:32;;;;;;;0.43;0.43;;;;;;;6.46;92.46;96379.41;5003502;28;20050;-71
2023/04/15 07:57:59;;;;;;;0.20;0.20;;;;;;;6.46;92.08;96380.22;5008783;28;20042;-71
2023/04/15 08:00:27;;;;;;;0.22;0.22;;;;;;;6.45;92.86;96386.53;5006363;28;20042;-71
2023/04/15 08:02:58;;;;;;;0.10;0.10;;;;;;;6.50;92.38;96385.94;5008684;28;20046;-71
2023/04/15 08:05:26;;;;;;;0.20;0.20;;;;;;;6.55;92.21;96380.84;5007432;28;20042;-71
2023/04/15 08:07:53;;;;;;;0.15;0.15;;;;;;;6.57;91.97;96384.13;5011867;28;20080;-71
2023/04/15 08:10:21;;;;;;;0.10;0.10;;;;;;;6.59;92.31;96384.75;5011861;28;20046;-71
2023/04/15 08:12:49;;;;;;;0.20;0.20;;;;;;;6.64;92.20;96380.47;5009632;28;20505;-71
2023/04/15 08:15:17;;;;;;;0.22;0.22;;;;;;;6.68;92.13;96375.59;5007308;28;20038;-71
2023/04/15 08:17:45;;;;;;;0.20;0.20;;;;;;;6.68;92.13;96385.38;5010321;28;20056;-70
2023/04/15 08:20:14;;;;;;;0.13;0.13;;;;;;;6.71;92.17;96379.69;5004991;28;20412;-71
2023/04/15 08:22:42;;;;;;;0.10;0.10;;;;;;;6.79;92.04;96384.78;5010096;28;20050;-71
2023/04/15 08:25:10;;;;;;;0.13;0.13;;;;;;;6.76;92.07;96385.19;5005134;28;20077;-71
2023/04/15 08:27:37;;;;;;;0.13;0.13;;;;;;;6.78;92.08;96391.09;5012110;28;20378;-71
2023/04/15 08:30:06;;;;;;;0.20;0.20;;;;;;;6.85;92.04;96387.44;5005612;28;20049;-71
2023/04/15 08:32:34;;;;;;;0.10;0.10;;;;;;;6.91;91.95;96389.31;5008493;28;20529;-71
2023/04/15 08:35:01;;;;;;;0.20;0.20;;;;;;;6.94;91.93;96393.41;5010464;28;20046;-71
2023/04/15 08:37:30;;;;;;;0.10;0.10;;;;;;;6.88;91.46;96391.53;5009168;28;20046;-71
2023/04/15 08:39:58;;;;;;;0.20;0.20;;;;;;;6.76;90.65;96393.97;5009407;28;20057;-71
2023/04/15 08:42:31;;;;;;;0.13;0.13;;;;;;;6.78;91.08;96397.22;5009710;28;20437;-71
2023/04/15 08:44:59;;;;;;;0.20;0.20;;;;;;;6.81;91.47;96388.88;5008745;28;20046;-71
2023/04/15 08:47:30;;;;;;;0.22;0.22;;;;;;;6.87;91.46;96411.94;5005720;28;20045;-71
2023/04/15 08:49:58;;;;;;;0.20;0.20;;;;;;;6.93;90.82;96397.88;5003922;28;20061;-72
2023/04/15 08:52:26;;;;;;;0.10;0.10;;;;;;;6.96;91.24;96408.06;5005820;28;20042;-71
2023/04/15 08:54:57;;;;;;;0.10;0.10;;;;;;;6.99;91.33;96413.00;5000484;28;20120;-72
2023/04/15 08:57:26;;;;;;;0.30;0.30;;;;;;;7.07;91.07;96419.94;5003624;28;20042;-71
2023/04/15 08:59:55;;;;;;;0.30;0.30;;;;;;;7.09;90.49;96417.06;5012753;28;21000;-72
2023/04/15 09:02:23;;;;;;;0.20;0.20;;;;;;;7.00;89.99;96417.28;5014360;28;20100;-72
2023/04/15 09:04:51;;;;;;;0.17;0.17;;;;;;;7.06;89.43;96414.84;5008929;28;20044;-71
2023/04/15 09:07:21;;;;;;;0.55;0.55;;;;;;;7.03;89.96;96420.56;5013387;28;20038;-71
2023/04/15 09:09:49;;;;;;;0.20;0.20;;;;;;;7.00;90.26;96417.28;5015968;28;20050;-71
2023/04/15 09:12:19;;;;;;;0.28;0.28;;;;;;;6.95;90.51;96411.78;5012966;28;20373;-71
2023/04/15 09:14:47;;;;;;;0.20;0.20;;;;;;;6.93;90.23;96411.16;5011235;28;20050;-71
2023/04/15 09:17:18;;;;;;;0.22;0.22;;;;;;;6.89;90.66;96417.88;5010666;28;20053;-71
2023/04/15 09:19:46;;;;;;;0.10;0.10;;;;;;;6.88;89.41;96421.53;5014207;28;20046;-71
2023/04/15 09:22:14;;;;;;;0.32;0.32;;;;;;;6.97;90.18;96417.66;5006758;28;20448;-71
2023/04/15 09:24:42;;;;;;;0.10;0.10;;;;;;;6.91;90.19;96420.31;5009970;28;20103;-72
2023/04/15 09:27:10;;;;;;;0.20;0.20;;;;;;;6.85;91.62;96424.56;5007975;28;20088;-73
2023/04/15 09:29:41;;;;;;;0.40;0.40;;;;;;;6.80;89.83;96427.03;5008322;28;20551;-71
2023/04/15 09:32:12;;;;;;;0.35;0.35;;;;;;;6.88;90.72;96437.44;5005181;28;20100;-71
2023/04/15 09:34:40;;;;;;;0.10;0.10;;;;;;;6.97;90.16;96430.94;5007943;28;20041;-71
2023/04/15 09:37:09;;;;;;;0.10;0.10;;;;;;;7.05;90.57;96440.56;5008509;28;20088;-71
2023/04/15 09:39:48;;;;;;;0.20;0.20;;;;;;;7.08;90.12;96436.66;5003314;28;20049;-73
2023/04/15 09:42:22;;;;;;;0.20;0.20;;;;;;;7.07;89.38;96443.81;5003479;28;20042;-71
2023/04/15 09:44:52;;;;;;;0.20;0.20;;;;;;;7.11;89.73;96445.06;5003478;28;20065;-72
2023/04/15 09:47:28;;;;;;;0.17;0.17;;;;;;;7.00;88.61;96449.09;5005182;28;20088;-71
2023/04/15 09:49:57;;;;;;;0.20;0.20;;;;;;;7.07;89.96;96443.00;5003564;28;20493;-72
2023/04/15 09:52:24;;;;;;;0.10;0.10;;;;;;;7.05;89.61;96450.34;5003566;28;20050;-72
2023/04/15 09:54:53;;;;;;;0.20;0.20;;;;;;;7.25;88.86;96445.91;5003844;28;20500;-71
2023/04/15 09:57:22;;;;;;;0.10;0.10;;;;;;;7.07;89.45;96453.59;5006840;28;20042;-72
2023/04/15 09:59:51;;;;;;;0.13;0.13;;;;;;;6.96;89.84;96455.00;5008768;28;20104;-71
2023/04/15 10:02:20;;;;;;;0.10;0.10;;;;;;;7.05;89.91;96443.22;5002579;28;20501;-71
2023/04/15 10:04:48;;;;;;;0.20;0.20;;;;;;;7.08;90.68;96449.94;5005703;28;20053;-72
2023/04/15 10:07:19;;;;;;;0.30;0.30;;;;;;;7.13;90.54;96458.13;5003548;28;20049;-71
2023/04/15 10:09:48;;;;;;;0.15;0.15;;;;;;;7.18;89.95;96461.78;5007493;28;20042;-71
2023/04/15 10:12:17;;;;;;;0.17;0.17;;;;;;;7.26;89.67;96463.47;5014065;28;20041;-71
2023/04/15 10:14:45;;;;;;;0.20;0.17;;;;;;;7.18;88.63;96464.44;5013581;28;20041;-71
2023/04/15 10:17:16;;;;;;;0.10;0.10;;;;;;;7.23;89.40;96462.00;5010532;28;20091;-71
2023/04/15 10:19:44;;;;;;;0.25;0.25;;;;;;;7.30;88.77;96462.00;5014661;28;20057;-71
2023/04/15 10:22:11;;;;;;;0.10;0.10;;;;;;;7.30;88.98;96452.22;5010686;28;20429;-71
2023/04/15 10:24:40;;;;;;;0.20;0.20;;;;;;;7.37;88.91;96462.88;5014665;28;20046;-72
2023/04/15 10:27:07;;;;;;;0.25;0.25;;;;;;;7.44;89.25;96457.56;5009254;28;20041;-72
2023/04/15 10:29:35;;;;;;;0.20;0.20;;;;;;;7.48;88.67;96464.88;5010794;28;20042;-71
2023/04/15 10:32:03;;;;;;;0.22;0.22;;;;;;;7.51;88.37;96466.31;5009413;28;20230;-72
2023/04/15 10:34:32;;;;;;;0.20;0.20;;;;;;;7.57;87.89;96465.53;5010581;28;20045;-71
2023/04/15 10:37:02;;;;;;;0.13;0.13;;;;;;;7.53;87.45;96469.59;5008817;28;20043;-71
2023/04/15 10:39:43;;;;;;;0.32;0.32;;;;;;;7.54;87.67;96469.41;5006902;28;20409;-72
2023/04/15 10:42:12;;;;;;;0.28;0.28;;;;;;;7.58;87.73;96472.47;5011679;28;20449;-72
2023/04/15 10:44:42;;;;;;;0.20;0.20;;;;;;;7.54;87.98;96474.72;5006467;28;20045;-72
2023/04/15 10:47:11;;;;;;;0.22;0.22;;;;;;;7.59;87.85;96472.25;5004731;28;20042;-71
2023/04/15 10:49:48;;;;;;;0.15;0.15;;;;;;;7.58;88.42;96478.56;5009915;28;20100;-72
2023/04/15 10:52:18;;;;;;;0.22;0.22;;;;;;;7.62;88.32;96481.66;5006219;28;20053;-71
2023/04/15 10:54:45;;;;;;;0.10;0.10;;;;;;;7.63;87.65;96478.81;5006267;28;20541;-72
2023/04/15 10:57:21;;;;;;;0.15;0.15;;;;;;;7.61;88.05;96480.84;5012393;28;20441;-72
2023/04/15 11:00:11;;;;;;;0.20;0.20;;;;;;;7.71;88.59;96472.47;5012372;28;20092;-71
2023/04/15 11:02:41;;;;;;;0.30;0.30;;;;;;;7.74;87.68;96467.56;5008233;28;20092;-71
2023/04/15 11:05:10;;;;;;;0.10;0.10;;;;;;;7.71;87.90;96470.63;4998195;28;20069;-71
2023/04/15 11:07:40;;;;;;;0.10;0.10;;;;;;;7.74;87.73;96472.06;5007393;28;20072;-72
2023/04/15 11:10:51;;;;;;;0.20;0.20;;;;;;;7.71;87.65;96483.91;5010366;28;20568;-72
2023/04/15 11:13:31;;;;;;;0.10;0.10;;;;;;;7.76;87.88;96475.34;5007120;28;20567;-72
2023/04/15 11:16:02;;;;;;;0.25;0.25;;;;;;;7.82;88.12;96485.13;5012514;28;20096;-71
2023/04/15 11:18:32;;;;;;;0.30;0.30;;;;;;;7.76;88.51;96490.44;5011319;28;20565;-71
2023/04/15 11:21:03;;;;;;;0.22;0.22;;;;;;;7.82;88.63;96489.63;5015942;28;20049;-71
2023/04/15 11:23:36;;;;;;;0.30;0.30;;;;;;;7.85;88.54;96483.91;5010196;28;20449;-71
2023/04/15 11:26:08;;;;;;;0.32;0.32;;;;;;;7.88;88.81;96486.16;5010946;28;20064;-72
2023/04/15 11:28:36;;;;;;;0.32;0.32;;;;;;;7.96;88.46;96499.22;5008588;28;20449;-72
2023/04/15 11:31:09;;;;;;;0.20;0.20;;;;;;;7.92;87.81;96490.84;5012555;28;20054;-71
2023/04/15 11:33:37;;;;;;;0.10;0.10;;;;;;;7.87;87.55;96488.00;5013541;28;20517;-71
2023/04/15 11:36:06;;;;;;;0.30;0.30;;;;;;;7.82;87.98;96501.06;5005159;28;20058;-72
2023/04/15 11:38:34;;;;;;;0.10;0.10;;;;;;;7.78;87.29;96496.38;5009090;28;20093;-71
2023/04/15 11:41:02;;;;;;;0.10;0.10;;;;;;;7.78;88.35;96501.69;5006576;28;20037;-71
2023/04/15 11:43:34;;;;;;;0.10;0.10;;;;;;;7.81;88.71;96498.59;5008096;28;20046;-72
2023/04/15 11:46:02;;;;;;;0.35;0.35;;;;;;;7.83;88.46;96508.00;5004577;28;20041;-72
2023/04/15 11:48:32;;;;;;;0.20;0.20;;;;;;;7.83;88.22;96509.84;5007187;28;20057;-72